Time;durP1;ratioP1;P1;durP2;ratioP2;P2;SDS_P1;SDS_P2;PMS_P1;PMS_P2;Temp;Humidity;BMP_temperature;BMP_pressure;BME280_temperature;BME280_humidity;BME280_pressure;Samples;Min_cycle;Max_cycle;Signal;HPM_P1;HPM_P2
2022/05/12 00:02:18;;;;;;;;;;;;;;;7.14;46.85;100645.11;1703693;82;20231;-61
2022/05/12 00:05:23;;;;;;;;;;;;;;;7.16;47.03;100648.55;1705172;82;20290;-61
2022/05/12 00:08:30;;;;;;;;;;;;;;;7.15;47.16;100653.61;1704763;82;20597;-61
2022/05/12 00:11:34;;;;;;;;;;;;;;;7.17;47.28;100643.94;1701700;83;20869;-59
2022/05/12 00:14:39;;;;;;;;;;;;;;;7.12;47.30;100643.02;1700574;83;20215;-60
2022/05/12 00:17:44;;;;;;;;;;;;;;;7.08;47.28;100644.84;1701269;82;20220;-61
2022/05/12 00:20:50;;;;;;;;;;;;;;;7.04;47.32;100644.78;1704274;83;20212;-61
2022/05/12 00:23:58;;;;;;;;;;;;;;;6.99;47.39;100650.64;1704280;82;20224;-61
2022/05/12 00:27:03;;;;;;;;;;;;;;;6.98;47.51;100658.95;1702334;82;20394;-61
2022/05/12 00:30:09;;;;;;;;;;;;;;;6.98;47.68;100652.16;1702840;82;20925;-60
2022/05/12 00:33:15;;;;;;;;;;;;;;;7.00;47.83;100649.66;1704092;82;20241;-61
2022/05/12 00:36:20;;;;;;;;;;;;;;;7.00;47.94;100645.58;1696047;83;20261;-61
2022/05/12 00:39:27;;;;;;;;;;;;;;;7.05;48.07;100659.61;1705649;81;20612;-61
2022/05/12 00:42:33;;;;;;;;;;;;;;;7.05;48.11;100660.10;1701934;82;20274;-60
2022/05/12 00:45:39;;;;;;;;;;;;;;;7.05;48.18;100666.41;1705671;82;20284;-61
2022/05/12 00:48:44;;;;;;;;;;;;;;;7.04;48.18;100658.39;1700065;83;20249;-61
2022/05/12 00:51:59;;;;;;;;;;;;;;;7.02;48.19;100661.76;1703840;83;20291;-61
2022/05/12 00:55:13;;;;;;;;;;;;;;;7.01;48.21;100664.10;1698299;82;20199;-60
2022/05/12 00:58:21;;;;;;;;;;;;;;;7.02;48.31;100659.03;1673923;84;20199;-60
2022/05/12 01:01:25;;;;;;;;;;;;;;;7.05;48.45;100657.37;1672008;83;20211;-61
2022/05/12 01:04:31;;;;;;;;;;;;;;;7.07;48.57;100657.58;1649119;84;20193;-61
2022/05/12 01:07:35;;;;;;;;;;;;;;;7.11;48.65;100659.50;1705568;83;20184;-61
2022/05/12 01:10:40;;;;;;;;;;;;;;;7.16;48.78;100652.63;1652058;84;20215;-62
2022/05/12 01:13:46;;;;;;;;;;;;;;;7.20;48.86;100652.67;1654228;85;20183;-59
2022/05/12 01:16:55;;;;;;;;;;;;;;;7.26;49.01;100643.91;1633587;84;20207;-61
2022/05/12 01:20:01;;;;;;;;;;;;;;;7.33;49.09;100649.63;1657512;83;20203;-61
2022/05/12 01:23:29;;;;;;;;;;;;;;;7.39;49.16;100649.89;1702977;82;20212;-60
2022/05/12 01:26:34;;;;;;;;;;;;;;;7.47;49.27;100639.60;1686089;83;20212;-60
2022/05/12 01:29:37;;;;;;;;;;;;;;;7.54;49.33;100639.37;1682244;83;20540;-60
2022/05/12 01:32:50;;;;;;;;;;;;;;;7.59;49.32;100644.70;1703448;83;20203;-61
2022/05/12 01:35:56;;;;;;;;;;;;;;;7.63;49.36;100639.81;1702699;83;20227;-61
2022/05/12 01:39:00;;;;;;;;;;;;;;;7.69;49.41;100643.30;1703576;82;20204;-61
2022/05/12 01:42:05;;;;;;;;;;;;;;;7.72;49.41;100636.70;1702662;82;20208;-61
2022/05/12 01:45:10;;;;;;;;;;;;;;;7.77;49.44;100638.47;1678246;83;20603;-60
2022/05/12 01:48:17;;;;;;;;;;;;;;;7.81;49.52;100647.55;1704531;82;20596;-60
2022/05/12 01:51:23;;;;;;;;;;;;;;;7.84;49.53;100640.44;1687302;83;20207;-60
2022/05/12 01:54:29;;;;;;;;;;;;;;;7.89;49.61;100638.11;1702549;83;20191;-61
2022/05/12 01:57:33;;;;;;;;;;;;;;;7.94;49.67;100637.65;1701445;83;20207;-61
2022/05/12 02:00:39;;;;;;;;;;;;;;;7.99;49.71;100639.42;1702978;82;20216;-61
2022/05/12 02:03:44;;;;;;;;;;;;;;;8.03;49.77;100633.50;1701237;82;20232;-61
2022/05/12 02:06:49;;;;;;;;;;;;;;;8.08;49.84;100633.03;1703721;83;20259;-61
2022/05/12 02:09:55;;;;;;;;;;;;;;;8.11;49.87;100630.86;1705285;82;20219;-61
2022/05/12 02:13:00;;;;;;;;;;;;;;;8.15;49.93;100634.15;1700247;83;20220;-60
2022/05/12 02:16:05;;;;;;;;;;;;;;;8.18;49.98;100631.11;1707582;82;20603;-60
2022/05/12 02:19:11;;;;;;;;;;;;;;;8.21;50.02;100630.80;1703895;83;20297;-61
2022/05/12 02:22:16;;;;;;;;;;;;;;;8.26;50.06;100639.41;1698131;82;20256;-61
2022/05/12 02:25:21;;;;;;;;;;;;;;;8.30;50.12;100636.70;1704092;82;20674;-60
2022/05/12 02:28:25;;;;;;;;;;;;;;;8.35;50.15;100630.28;1703791;82;20269;-62
2022/05/12 02:31:30;;;;;;;;;;;;;;;8.39;50.20;100637.13;1698481;83;20819;-62
2022/05/12 02:34:35;;;;;;;;;;;;;;;8.43;50.28;100637.19;1702102;83;20279;-60
2022/05/12 02:37:39;;;;;;;;;;;;;;;8.47;50.30;100634.48;1702567;82;20251;-60
2022/05/12 02:40:43;;;;;;;;;;;;;;;8.50;50.34;100640.48;1701585;82;20192;-60
2022/05/12 02:43:47;;;;;;;;;;;;;;;8.54;50.39;100639.67;1702021;83;20212;-60
2022/05/12 02:46:53;;;;;;;;;;;;;;;8.56;50.44;100642.59;1702485;82;20279;-60
2022/05/12 02:49:57;;;;;;;;;;;;;;;8.61;50.51;100647.60;1702379;82;20203;-61
2022/05/12 02:53:02;;;;;;;;;;;;;;;8.67;50.58;100640.14;1693907;82;20201;-61
2022/05/12 02:56:07;;;;;;;;;;;;;;;8.73;50.65;100649.92;1702615;82;20223;-59
2022/05/12 02:59:13;;;;;;;;;;;;;;;8.80;50.70;100654.25;1700438;83;20243;-60
2022/05/12 03:02:20;;;;;;;;;;;;;;;8.85;50.75;100647.28;1704290;82;20540;-60
2022/05/12 03:05:26;;;;;;;;;;;;;;;8.92;50.78;100651.60;1704703;82;20691;-60
2022/05/12 03:08:32;;;;;;;;;;;;;;;8.98;50.81;100646.87;1685034;83;20208;-60
2022/05/12 03:11:38;;;;;;;;;;;;;;;9.04;50.81;100639.39;1701960;82;20196;-60
2022/05/12 03:14:44;;;;;;;;;;;;;;;9.09;50.82;100646.11;1702955;82;20207;-60
2022/05/12 03:17:50;;;;;;;;;;;;;;;9.15;50.86;100643.76;1703836;82;20311;-61
2022/05/12 03:20:56;;;;;;;;;;;;;;;9.21;50.90;100646.70;1702741;82;20264;-60
2022/05/12 03:24:01;;;;;;;;;;;;;;;9.29;50.92;100645.40;1710057;81;20551;-61
2022/05/12 03:27:06;;;;;;;;;;;;;;;9.36;50.96;100647.81;1703929;80;20634;-61
2022/05/12 03:30:13;;;;;;;;;;;;;;;9.46;51.02;100647.20;1705742;82;20516;-62
2022/05/12 03:33:19;;;;;;;;;;;;;;;9.55;51.03;100648.08;1685996;82;20203;-62
2022/05/12 03:36:23;;;;;;;;;;;;;;;9.63;51.04;100653.09;1704294;82;20211;-61
2022/05/12 03:39:27;;;;;;;;;;;;;;;9.75;51.09;100648.20;1706426;82;20243;-62
2022/05/12 03:42:31;;;;;;;;;;;;;;;9.85;51.10;100652.51;1700071;81;20235;-61
2022/05/12 03:45:38;;;;;;;;;;;;;;;9.96;51.13;100646.73;1708552;82;20263;-62
2022/05/12 03:48:45;;;;;;;;;;;;;;;10.06;51.17;100647.47;1708868;82;20211;-62
2022/05/12 03:51:53;;;;;;;;;;;;;;;10.19;51.18;100646.52;1707763;81;20219;-61
2022/05/12 03:54:58;;;;;;;;;;;;;;;10.29;51.17;100653.21;1686620;84;20196;-63
2022/05/12 03:58:04;;;;;;;;;;;;;;;10.34;51.13;100657.14;1705070;82;20335;-61
2022/05/12 04:01:09;;;;;;;;;;;;;;;10.40;51.16;100657.00;1707572;82;20559;-61
2022/05/12 04:04:15;;;;;;;;;;;;;;;10.45;51.18;100656.82;1708068;83;20264;-58
2022/05/12 04:07:24;;;;;;;;;;;;;;;10.53;51.21;100665.05;1707235;82;20602;-59
2022/05/12 04:10:32;;;;;;;;;;;;;;;10.59;51.24;100660.26;1703826;82;20244;-61
2022/05/12 04:13:37;;;;;;;;;;;;;;;10.69;51.26;100668.84;1705470;82;20678;-59
2022/05/12 04:16:41;;;;;;;;;;;;;;;10.78;51.29;100663.21;1707354;82;20218;-58
2022/05/12 04:19:50;;;;;;;;;;;;;;;10.85;51.28;100653.77;1700624;82;20253;-59
2022/05/12 04:22:53;;;;;;;;;;;;;;;10.89;51.29;100651.91;1699806;82;20231;-58
2022/05/12 04:25:57;;;;;;;;;;;;;;;10.93;51.28;100652.41;1706979;82;20255;-58
2022/05/12 04:29:04;;;;;;;;;;;;;;;10.96;51.24;100650.69;1700988;82;20601;-57
2022/05/12 04:32:10;;;;;;;;;;;;;;;11.00;51.30;100646.59;1680381;81;20565;-57
2022/05/12 04:35:14;;;;;;;;;;;;;;;11.13;51.29;100644.19;1676909;85;20597;-58
2022/05/12 04:38:20;;;;;;;;;;;;;;;11.26;51.25;100643.13;1680412;82;20581;-60
2022/05/12 04:41:25;;;;;;;;;;;;;;;11.43;51.26;100644.82;1702322;82;20273;-60
2022/05/12 04:44:30;;;;;;;;;;;;;;;11.58;51.17;100638.94;1705916;82;20650;-60
2022/05/12 04:47:37;;;;;;;;;;;;;;;11.73;51.14;100642.71;1706854;82;20672;-59
2022/05/12 04:50:43;;;;;;;;;;;;;;;11.88;51.14;100647.78;1706728;82;20260;-59
2022/05/12 04:53:49;;;;;;;;;;;;;;;11.98;51.07;100646.55;1704852;82;20256;-61
2022/05/12 04:56:56;;;;;;;;;;;;;;;12.12;51.05;100653.16;1702256;82;20636;-59
2022/05/12 05:00:01;;;;;;;;;;;;;;;12.22;51.01;100649.69;1701550;82;20224;-57
2022/05/12 05:03:06;;;;;;;;;;;;;;;12.30;51.00;100653.77;1694515;82;20594;-57
2022/05/12 05:06:14;;;;;;;;;;;;;;;12.41;50.99;100653.35;1705783;82;20684;-58
2022/05/12 05:09:21;;;;;;;;;;;;;;;12.53;51.02;100658.75;1701650;83;20538;-56
2022/05/12 05:12:26;;;;;;;;;;;;;;;12.68;51.03;100645.96;1703084;82;20227;-55
2022/05/12 05:15:31;;;;;;;;;;;;;;;12.86;51.03;100648.41;1699390;83;20223;-56
2022/05/12 05:18:38;;;;;;;;;;;;;;;13.07;51.04;100637.58;1706335;82;20223;-55
2022/05/12 05:21:43;;;;;;;;;;;;;;;13.27;51.07;100632.73;1706946;83;20243;-56
2022/05/12 05:24:51;;;;;;;;;;;;;;;13.52;51.04;100630.61;1698079;82;20344;-60
2022/05/12 05:27:57;;;;;;;;;;;;;;;13.80;51.04;100632.16;1703120;82;20299;-59
2022/05/12 05:31:03;;;;;;;;;;;;;;;14.05;51.02;100632.20;1706049;82;20274;-58
2022/05/12 05:34:09;;;;;;;;;;;;;;;14.29;50.89;100634.64;1702123;82;20268;-58
2022/05/12 05:37:14;;;;;;;;;;;;;;;14.50;50.81;100639.68;1706745;82;20220;-57
2022/05/12 05:40:19;;;;;;;;;;;;;;;14.73;50.72;100632.62;1701811;83;20225;-56
2022/05/12 05:43:26;;;;;;;;;;;;;;;14.92;50.60;100634.72;1702124;82;20244;-58
2022/05/12 05:46:31;;;;;;;;;;;;;;;15.11;50.47;100634.02;1690657;83;20510;-57
2022/05/12 05:49:36;;;;;;;;;;;;;;;15.32;50.35;100634.53;1687646;82;20223;-57
2022/05/12 05:56:05;;;;;;;;;;;;;;;15.73;50.15;100624.45;1699022;82;20216;-60
2022/05/12 05:59:11;;;;;;;;;;;;;;;15.90;49.96;100619.75;1706300;82;20623;-60
2022/05/12 06:02:17;;;;;;;;;;;;;;;16.08;49.88;100622.83;1698594;83;20231;-59
2022/05/12 06:05:25;;;;;;;;;;;;;;;16.29;49.77;100618.56;1693564;83;20223;-55
2022/05/12 06:08:32;;;;;;;;;;;;;;;16.52;49.68;100618.25;1697100;83;20247;-58
2022/05/12 06:11:44;;;;;;;;;;;;;;;16.74;49.55;100613.41;1695117;82;20220;-58
2022/05/12 06:14:49;;;;;;;;;;;;;;;16.96;49.41;100611.62;1696534;82;20259;-57
2022/05/12 06:17:55;;;;;;;;;;;;;;;17.20;49.25;100618.45;1700480;82;20231;-55
2022/05/12 06:21:01;;;;;;;;;;;;;;;17.42;49.05;100617.16;1692386;81;20575;-57
2022/05/12 06:24:06;;;;;;;;;;;;;;;17.63;48.87;100615.57;1674405;82;20591;-57
2022/05/12 06:27:12;;;;;;;;;;;;;;;17.84;48.63;100618.06;1675252;82;20533;-57
2022/05/12 06:30:18;;;;;;;;;;;;;;;18.03;48.40;100612.99;1704125;81;20231;-56
2022/05/12 06:33:25;;;;;;;;;;;;;;;18.26;48.25;100609.71;1701275;81;20600;-56
2022/05/12 06:36:31;;;;;;;;;;;;;;;18.48;48.07;100610.60;1704913;82;20568;-58
2022/05/12 06:39:38;;;;;;;;;;;;;;;18.68;47.81;100604.39;1708596;82;20219;-55
2022/05/12 06:42:42;;;;;;;;;;;;;;;18.87;47.58;100599.78;1693285;83;20253;-55
2022/05/12 06:45:49;;;;;;;;;;;;;;;19.05;47.37;100603.50;1700586;82;20232;-57
2022/05/12 06:48:57;;;;;;;;;;;;;;;19.27;47.15;100597.01;1690148;83;20226;-58
2022/05/12 06:52:05;;;;;;;;;;;;;;;19.47;46.86;100581.08;1704452;81;20243;-56
2022/05/12 06:55:11;;;;;;;;;;;;;;;19.66;46.64;100579.16;1658940;83;20219;-58
2022/05/12 06:58:17;;;;;;;;;;;;;;;19.81;46.39;100581.87;1643807;81;20251;-59
2022/05/12 07:01:23;;;;;;;;;;;;;;;19.95;46.16;100588.97;1656262;82;20579;-58
2022/05/12 07:04:34;;;;;;;;;;;;;;;20.04;45.90;100586.73;1654337;83;20562;-60
2022/05/12 07:07:41;;;;;;;;;;;;;;;20.14;45.66;100592.61;1650769;83;20510;-59
2022/05/12 07:10:46;;;;;;;;;;;;;;;20.21;45.47;100582.27;1686583;81;20245;-57
2022/05/12 07:13:51;;;;;;;;;;;;;;;20.30;45.24;100579.47;1696256;84;20224;-58
2022/05/12 07:16:56;;;;;;;;;;;;;;;20.38;45.06;100579.15;1685139;81;20661;-56
2022/05/12 07:26:55;;;;;;;;;;;;;;;20.58;44.43;100576.96;1695658;82;20212;-59
2022/05/12 07:30:00;;;;;;;;;;;;;;;20.65;44.19;100579.09;1703058;82;20264;-60
2022/05/12 07:33:05;;;;;;;;;;;;;;;20.72;43.97;100581.23;1680236;82;20219;-59
2022/05/12 07:36:14;;;;;;;;;;;;;;;20.79;43.78;100577.80;1677097;83;20655;-59
2022/05/12 07:39:18;;;;;;;;;;;;;;;20.87;43.58;100574.67;1703757;83;20283;-60
2022/05/12 07:42:26;;;;;;;;;;;;;;;20.97;43.43;100574.98;1708247;82;20228;-59
2022/05/12 07:45:31;;;;;;;;;;;;;;;21.06;43.20;100570.76;1708997;82;20228;-58
2022/05/12 07:48:35;;;;;;;;;;;;;;;21.16;43.04;100571.03;1704023;82;20302;-59
2022/05/12 07:51:40;;;;;;;;;;;;;;;21.25;42.89;100559.00;1676541;83;20225;-59
2022/05/12 07:54:44;;;;;;;;;;;;;;;21.32;42.68;100560.58;1678947;82;20230;-60
2022/05/12 07:57:49;;;;;;;;;;;;;;;21.40;42.48;100556.04;1704890;82;20520;-57
2022/05/12 08:00:54;;;;;;;;;;;;;;;21.48;42.31;100559.86;1693402;83;20215;-59
2022/05/12 08:04:01;;;;;;;;;;;;;;;21.55;42.09;100556.38;1698579;82;20279;-59
2022/05/12 08:07:07;;;;;;;;;;;;;;;21.63;41.93;100557.95;1703549;83;20563;-59
2022/05/12 08:10:16;;;;;;;;;;;;;;;21.73;41.76;100547.90;1701670;83;20263;-60
2022/05/12 08:13:23;;;;;;;;;;;;;;;21.83;41.60;100552.35;1702797;82;20203;-59
2022/05/12 08:16:34;;;;;;;;;;;;;;;21.91;41.40;100540.80;1701634;83;20223;-58
2022/05/12 08:19:40;;;;;;;;;;;;;;;21.97;41.18;100530.61;1700960;83;20275;-58
2022/05/12 08:22:49;;;;;;;;;;;;;;;22.06;41.04;100539.73;1703778;83;20868;-57
2022/05/12 08:25:55;;;;;;;;;;;;;;;22.14;40.84;100538.50;1703384;83;20255;-59
2022/05/12 08:29:00;;;;;;;;;;;;;;;22.25;40.69;100542.36;1694098;83;20573;-58
2022/05/12 08:32:05;;;;;;;;;;;;;;;22.35;40.50;100531.39;1682047;83;20565;-57
2022/05/12 08:35:12;;;;;;;;;;;;;;;22.43;40.36;100527.66;1689924;82;20197;-57
2022/05/12 08:38:19;;;;;;;;;;;;;;;22.54;40.19;100527.33;1689829;82;20601;-57
2022/05/12 08:41:42;;;;;;;;;;;;;;;22.66;40.06;100532.33;1662244;83;20219;-56
2022/05/12 08:44:49;;;;;;;;;;;;;;;22.76;39.82;100521.33;1704724;82;20290;-57
2022/05/12 08:47:56;;;;;;;;;;;;;;;22.83;39.61;100526.21;1716953;82;20307;-57
2022/05/12 08:51:03;;;;;;;;;;;;;;;22.90;39.42;100525.48;1706327;80;20899;-58
2022/05/12 08:54:08;;;;;;;;;;;;;;;23.00;39.24;100521.48;1686505;84;20637;-57
2022/05/12 08:57:14;;;;;;;;;;;;;;;23.10;39.12;100519.69;1705231;82;20488;-58
2022/05/12 09:00:22;;;;;;;;;;;;;;;23.15;38.94;100513.37;1706979;82;20216;-57
2022/05/12 09:03:52;;;;;;;;;;;;;;;23.19;38.75;100513.14;1705488;82;20202;-60
2022/05/12 09:07:23;;;;;;;;;;;;;;;23.23;38.61;100516.56;1701310;82;20276;-59
2022/05/12 09:10:46;;;;;;;;;;;;;;;23.35;38.48;100511.77;1691813;81;20246;-60
2022/05/12 09:13:55;;;;;;;;;;;;;;;23.42;38.25;100504.61;1685881;82;20274;-59
2022/05/12 09:17:01;;;;;;;;;;;;;;;23.51;38.13;100508.66;1681808;83;20264;-59
2022/05/12 09:20:07;;;;;;;;;;;;;;;23.56;37.90;100505.94;1700577;81;20258;-59
2022/05/12 09:23:11;;;;;;;;;;;;;;;23.60;37.74;100498.71;1671521;83;20485;-60
2022/05/12 09:26:38;;;;;;;;;;;;;;;23.66;37.59;100496.84;1697227;83;20369;-62
2022/05/12 09:29:56;;;;;;;;;;;;;;;23.75;37.47;100503.13;1700363;82;20246;-63
2022/05/12 09:33:05;;;;;;;;;;;;;;;23.76;37.24;100486.64;1702725;82;20243;-63
2022/05/12 09:36:15;;;;;;;;;;;;;;;23.81;37.14;100481.12;1675249;82;20659;-63
2022/05/12 09:39:40;;;;;;;;;;;;;;;23.93;37.03;100466.44;1688926;83;20220;-63
2022/05/12 09:42:50;;;;;;;;;;;;;;;23.99;36.83;100479.98;1680765;83;20865;-63
2022/05/12 09:46:31;;;;;;;;;;;;;;;24.08;36.73;100468.61;1708076;82;20214;-63
2022/05/12 09:49:41;;;;;;;;;;;;;;;24.19;36.65;100464.83;1696758;81;20605;-64
2022/05/12 09:52:46;;;;;;;;;;;;;;;24.30;36.43;100470.82;1668344;84;20241;-60
2022/05/12 09:56:09;;;;;;;;;;;;;;;24.31;36.23;100469.16;1679902;84;20221;-58
2022/05/12 09:59:24;;;;;;;;;;;;;;;24.34;36.14;100467.80;1669889;84;20217;-57
2022/05/12 10:09:37;;;;;;;;;;;;;;;24.72;35.70;100465.69;1701961;82;20483;-53
2022/05/12 10:12:59;;;;;;;;;;;;;;;24.86;35.49;100457.13;1690245;83;20276;-55
2022/05/12 10:16:04;;;;;;;;;;;;;;;24.98;35.31;100468.16;1689862;82;20280;-54
2022/05/12 10:19:22;;;;;;;;;;;;;;;25.02;35.15;100465.95;1686980;83;20559;-52
2022/05/12 10:22:29;;;;;;;;;;;;;;;25.08;34.95;100464.04;1701773;81;20250;-53
2022/05/12 10:25:57;;;;;;;;;;;;;;;25.12;34.82;100469.38;1688732;82;20205;-53
2022/05/12 10:29:06;;;;;;;;;;;;;;;25.25;34.72;100463.32;1693018;83;20220;-53
2022/05/12 10:32:37;;;;;;;;;;;;;;;25.42;34.60;100463.20;1677191;83;20563;-54
2022/05/12 10:36:06;;;;;;;;;;;;;;;25.51;34.39;100451.75;1646719;82;20671;-55
2022/05/12 10:39:35;;;;;;;;;;;;;;;25.67;34.33;100447.91;1647085;84;20319;-52
2022/05/12 10:42:45;;;;;;;;;;;;;;;25.84;34.18;100448.00;1650423;83;20597;-55
2022/05/12 10:46:01;;;;;;;;;;;;;;;26.00;34.02;100452.59;1674249;83;20261;-55
2022/05/12 10:49:18;;;;;;;;;;;;;;;26.03;33.79;100453.98;1677204;84;20222;-56
2022/05/12 10:52:27;;;;;;;;;;;;;;;26.06;33.69;100430.43;1676064;83;20598;-57
2022/05/12 10:55:54;;;;;;;;;;;;;;;26.14;33.53;100429.89;1676816;82;20226;-57
2022/05/12 10:59:11;;;;;;;;;;;;;;;26.24;33.44;100437.50;1676957;82;20681;-59
2022/05/12 11:02:23;;;;;;;;;;;;;;;26.34;33.25;100423.47;1674549;83;20218;-58
2022/05/12 11:05:40;;;;;;;;;;;;;;;26.59;33.15;100424.92;1696553;82;20196;-55
2022/05/12 11:08:56;;;;;;;;;;;;;;;26.78;32.95;100425.23;1702133;82;20242;-58
2022/05/12 11:12:02;;;;;;;;;;;;;;;26.77;32.73;100411.75;1688382;82;20227;-58
2022/05/12 11:15:17;;;;;;;;;;;;;;;26.63;32.54;100407.78;1703884;82;20286;-57
2022/05/12 11:18:37;;;;;;;;;;;;;;;26.61;32.44;100400.19;1704666;81;20303;-58
2022/05/12 11:21:46;;;;;;;;;;;;;;;26.69;32.36;100394.05;1651033;80;20602;-59
2022/05/12 11:24:59;;;;;;;;;;;;;;;26.75;32.21;100387.88;1697511;80;20211;-57
2022/05/12 11:31:56;;;;;;;;;;;;;;;26.91;32.01;100384.76;1699727;80;20296;-57
2022/05/12 11:35:07;;;;;;;;;;;;;;;26.95;31.85;100371.84;1691607;81;20220;-59
2022/05/12 11:38:14;;;;;;;;;;;;;;;27.09;31.82;100367.31;1683994;82;20285;-57
2022/05/12 11:41:42;;;;;;;;;;;;;;;27.28;31.72;100367.58;1689788;82;20283;-59
2022/05/12 11:45:05;;;;;;;;;;;;;;;27.37;31.50;100361.66;1696275;80;20277;-58
2022/05/12 11:48:48;;;;;;;;;;;;;;;27.40;31.36;100353.47;1701762;81;20208;-57
2022/05/12 11:51:59;;;;;;;;;;;;;;;27.41;31.25;100351.51;1694820;82;20220;-57
2022/05/12 11:55:08;;;;;;;;;;;;;;;27.45;31.14;100323.92;1703655;80;20215;-60
2022/05/12 11:58:17;;;;;;;;;;;;;;;27.55;31.05;100335.14;1700938;81;20616;-58
2022/05/12 12:01:32;;;;;;;;;;;;;;;27.51;30.89;100332.61;1697906;82;20234;-57
2022/05/12 12:04:48;;;;;;;;;;;;;;;27.54;30.84;100317.97;1697142;82;20684;-59
2022/05/12 12:08:00;;;;;;;;;;;;;;;27.57;30.72;100314.60;1693859;81;20608;-59
2022/05/12 12:11:12;;;;;;;;;;;;;;;27.65;30.64;100306.12;1697853;79;20408;-61
2022/05/12 12:14:25;;;;;;;;;;;;;;;27.71;30.53;100297.36;1702705;80;20211;-58
2022/05/12 12:17:36;;;;;;;;;;;;;;;27.74;30.40;100289.75;1705484;80;20586;-58
2022/05/12 12:20:50;;;;;;;;;;;;;;;27.81;30.29;100290.25;1700615;80;20644;-59
2022/05/12 12:24:29;;;;;;;;;;;;;;;27.96;30.24;100285.67;1705217;81;20889;-57
2022/05/12 12:27:38;;;;;;;;;;;;;;;28.05;30.16;100272.69;1697552;81;20651;-59
2022/05/12 12:30:57;;;;;;;;;;;;;;;28.06;29.98;100275.77;1692794;81;20250;-60
2022/05/12 12:34:33;;;;;;;;;;;;;;;28.02;29.83;100276.09;1683625;82;20231;-59
2022/05/12 12:37:53;;;;;;;;;;;;;;;27.98;29.77;100261.75;1685976;81;20560;-58
2022/05/12 12:41:01;;;;;;;;;;;;;;;28.08;29.69;100256.61;1705469;79;20275;-56
2022/05/12 12:44:14;;;;;;;;;;;;;;;28.22;29.55;100246.35;1695066;81;20271;-58
2022/05/12 12:47:40;;;;;;;;;;;;;;;28.34;29.40;100248.20;1681409;83;20226;-58
2022/05/12 12:50:51;;;;;;;;;;;;;;;28.34;29.20;100246.23;1703366;82;20228;-59
2022/05/12 12:57:28;;;;;;;;;;;;;;;28.40;29.02;100231.55;1706295;82;21179;-59
2022/05/12 13:00:38;;;;;;;;;;;;;;;28.38;28.83;100233.81;1700454;82;20290;-57
2022/05/12 13:03:43;;;;;;;;;;;;;;;28.34;28.76;100222.30;1693937;80;20271;-58
2022/05/12 13:06:53;;;;;;;;;;;;;;;28.34;28.71;100228.48;1697385;82;20448;-60
2022/05/12 13:12:30;;;;;;;;;;;;;;;28.41;28.54;100224.77;1713423;81;20512;-58
2022/05/12 13:15:35;;;;;;;;;;;;;;;28.41;28.48;100206.47;1701696;82;20643;-59
2022/05/12 13:18:42;;;;;;;;;;;;;;;28.42;28.42;100208.13;1693213;80;20612;-56
2022/05/12 13:24:39;;;;;;;;;;;;;;;28.34;28.29;100207.37;1712137;81;20228;-58
2022/05/12 13:27:46;;;;;;;;;;;;;;;28.31;28.26;100195.29;1714921;80;20223;-59
2022/05/12 13:36:04;;;;;;;;;;;;;;;28.49;28.06;100186.13;1698044;81;20588;-59
2022/05/12 13:39:13;;;;;;;;;;;;;;;28.60;27.97;100173.05;1707708;81;20227;-60
2022/05/12 13:42:18;;;;;;;;;;;;;;;28.70;27.88;100179.14;1697215;83;20216;-59
2022/05/12 13:48:08;;;;;;;;;;;;;;;28.65;27.75;100184.27;1712671;81;20278;-57
2022/05/12 13:51:17;;;;;;;;;;;;;;;28.65;27.70;100183.42;1695134;83;20226;-57
2022/05/12 13:54:34;;;;;;;;;;;;;;;28.63;27.65;100182.87;1702540;81;20579;-59
2022/05/12 13:57:47;;;;;;;;;;;;;;;28.53;27.58;100173.97;1698848;81;20221;-56
2022/05/12 14:06:32;;;;;;;;;;;;;;;28.64;27.47;100166.23;1698057;82;20494;-59
2022/05/12 14:09:40;;;;;;;;;;;;;;;28.63;27.43;100161.74;1685846;83;20215;-59
2022/05/12 14:22:09;;;;;;;;;;;;;;;28.73;27.31;100140.50;1726810;81;20631;-60
2022/05/12 14:27:43;;;;;;;;;;;;;;;28.78;27.14;100140.44;1704437;79;21006;-57
2022/05/12 14:30:49;;;;;;;;;;;;;;;28.84;27.09;100136.41;1714890;82;20391;-59
2022/05/12 14:33:54;;;;;;;;;;;;;;;28.87;27.01;100128.20;1745438;79;20560;-59
2022/05/12 14:37:01;;;;;;;;;;;;;;;28.83;26.94;100123.44;1694510;81;20646;-58
2022/05/12 14:42:33;;;;;;;;;;;;;;;29.07;26.86;100114.41;1746750;81;20270;-62
2022/05/12 14:45:37;;;;;;;;;;;;;;;29.13;26.83;100118.82;1738794;81;20596;-61
2022/05/12 14:48:48;;;;;;;;;;;;;;;29.29;26.77;100102.54;1743530;80;20213;-63
2022/05/12 14:54:24;;;;;;;;;;;;;;;29.82;26.40;100093.48;1743789;81;20213;-64
2022/05/12 14:57:28;;;;;;;;;;;;;;;30.03;26.36;100093.36;1725532;80;20286;-64
2022/05/12 15:00:32;;;;;;;;;;;;;;;30.46;26.07;100098.23;1676953;83;20598;-62
2022/05/12 15:03:41;;;;;;;;;;;;;;;30.40;25.91;100095.22;1668212;83;20221;-61
2022/05/12 15:09:17;;;;;;;;;;;;;;;30.29;26.00;100076.23;1680730;82;20198;-60
2022/05/12 15:14:56;;;;;;;;;;;;;;;30.64;25.91;100058.55;1695768;83;20240;-64
2022/05/12 15:18:04;;;;;;;;;;;;;;;30.68;25.76;100059.56;1706026;83;20588;-60
2022/05/12 15:23:38;;;;;;;;;;;;;;;30.53;25.80;100062.73;1695036;83;20252;-61
2022/05/12 15:26:45;;;;;;;;;;;;;;;30.46;25.78;100058.67;1710668;82;20603;-62
2022/05/12 15:32:21;;;;;;;;;;;;;;;30.53;25.60;100044.94;1703265;82;20220;-62
2022/05/12 15:37:56;;;;;;;;;;;;;;;30.34;25.70;100045.06;1711211;82;20694;-63
2022/05/12 15:41:03;;;;;;;;;;;;;;;30.34;25.63;100039.97;1704901;81;20569;-62
2022/05/12 15:46:37;;;;;;;;;;;;;;;30.59;25.46;100028.97;1723579;81;20615;-62
2022/05/12 15:49:43;;;;;;;;;;;;;;;30.54;25.44;100024.02;1690699;80;20209;-62
2022/05/12 15:55:19;;;;;;;;;;;;;;;29.95;25.57;100015.05;1719350;81;20295;-62
2022/05/12 16:00:57;;;;;;;;;;;;;;;29.62;25.65;100010.53;1723012;79;20196;-61
2022/05/12 16:04:06;;;;;;;;;;;;;;;29.65;25.65;100014.20;1711232;81;20236;-61
2022/05/12 16:17:54;;;;;;;;;;;;;;;30.82;24.99;99983.27;1700767;79;20540;-60
2022/05/12 16:23:30;;;;;;;;;;;;;;;30.42;24.93;99989.80;1714750;82;20194;-61
2022/05/12 16:26:37;;;;;;;;;;;;;;;29.92;25.06;99990.23;1711222;82;20221;-60
2022/05/12 16:32:10;;;;;;;;;;;;;;;28.91;25.49;99988.88;1730590;79;20333;-60
2022/05/12 16:35:16;;;;;;;;;;;;;;;28.60;25.60;99984.86;1715772;82;20246;-60
2022/05/12 16:38:23;;;;;;;;;;;;;;;28.21;25.74;99982.24;1689748;82;20563;-60
2022/05/12 16:41:29;;;;;;;;;;;;;;;27.82;25.89;99973.98;1705033;81;20267;-61
2022/05/12 16:47:04;;;;;;;;;;;;;;;27.16;26.15;99958.84;1713085;80;20249;-60
2022/05/12 16:50:11;;;;;;;;;;;;;;;26.94;26.25;99960.47;1711890;81;20277;-61
2022/05/12 16:53:16;;;;;;;;;;;;;;;26.64;26.38;99966.27;1712876;82;20337;-59
2022/05/12 16:58:49;;;;;;;;;;;;;;;26.10;26.64;99950.87;1679157;83;20627;-60
2022/05/12 17:04:24;;;;;;;;;;;;;;;25.74;26.80;99964.69;1715273;81;20283;-61
2022/05/12 17:07:32;;;;;;;;;;;;;;;25.57;26.91;99968.39;1707046;81;20317;-60
2022/05/12 17:10:37;;;;;;;;;;;;;;;25.34;27.03;99962.81;1697801;81;20494;-61
2022/05/12 17:13:43;;;;;;;;;;;;;;;25.12;27.14;99968.42;1679176;81;20214;-60
2022/05/12 17:16:49;;;;;;;;;;;;;;;24.91;27.28;99964.20;1670262;80;20259;-61
2022/05/12 17:22:24;;;;;;;;;;;;;;;24.50;27.53;99975.03;1661922;82;20686;-60
2022/05/12 17:25:28;;;;;;;;;;;;;;;24.34;27.62;99970.52;1652130;83;20220;-60
2022/05/12 17:28:34;;;;;;;;;;;;;;;24.14;27.77;99970.45;1680529;84;20320;-60
2022/05/12 17:34:10;;;;;;;;;;;;;;;23.81;28.05;99963.00;1685439;84;20206;-60
2022/05/12 17:39:47;;;;;;;;;;;;;;;23.49;28.27;99963.11;1688984;81;20251;-61
2022/05/12 17:42:52;;;;;;;;;;;;;;;23.35;28.42;99964.15;1698114;81;20270;-60
2022/05/12 17:48:30;;;;;;;;;;;;;;;23.01;28.73;99968.31;1721558;82;20212;-60
2022/05/12 17:51:35;;;;;;;;;;;;;;;22.87;28.85;99972.66;1710563;81;20214;-59
2022/05/12 17:54:40;;;;;;;;;;;;;;;22.71;29.01;99976.95;1704541;82;20188;-62
2022/05/12 17:57:54;;;;;;;;;;;;;;;22.55;29.17;99976.55;1704088;83;20362;-60
2022/05/12 18:01:02;;;;;;;;;;;;;;;22.41;29.36;99975.22;1706036;81;20231;-61
2022/05/12 18:04:09;;;;;;;;;;;;;;;22.27;29.53;99974.80;1687554;81;20266;-61
2022/05/12 18:07:14;;;;;;;;;;;;;;;22.16;29.71;99979.97;1689785;83;20197;-60